»·PEaware :: CAL5384 PANC-KMIA

CAL5384 :: PANC-KMIA

FLIGHT INFORMATION

Flight Status: Arrived
Operator:
China Airlines
More flights by this operator :: More flights under this callsign
Pilot: Drew L. (13237)
Aircraft: BOEING 747-400 (WINGLETS)
(B744)
More flights by this aircraft type
Origin: PANC Stevens Anchorage Intl
United States
Destination: KMIA Miami Intl
United States
More flights between these airports :: More routes between these airports
Route: TED YESKA NCA11 LEPET/N0506F330 NCA11 YWV J475 VLN J483 MOT ABR Q19 JAVAS/N0506F350 Q19 STL J151 VUZ J41 SZW SSCOT4
File this flight plan on PilotEdge
Remarks: PBN / A1B1D1O1S2 DOF / 180613 REG / N487SB EET / CZEG0039 PAZA0044 CZEG0100 CZWG0247 KZMP0325 KZAU0430 KZKC0436 KZME0504 KZTL0531 KZJX0550 KZMA0623 OPR / CAL PER / D RMK / TCAS SIMBRIEF
Altitude:
(Current/Filed)
31,000ft
Speed:
(Current/Filed)
509kts
Departed: 13-Jun-18 03:25 AM
Arrived: 13-Jun-18 10:27 AM
Distance/Time
Traveled:
3472nm/7:02
Distance/Time
To Go:
Arrived

Flight Plot

Page will automatically refresh every two minutes.

Flight plan parsing failed; only flown route is shown


Map Options




Map Legend


Flown Route
Filed Route
Departure Airport
Arrival Airport
Navaid (VOR, NDB)
Fix

Horizontal Profiles

Position Reports

Time Latitude Longitude Heading Altitude Ground
Speed
13-Jun-18 02:58 61.189895 -149.999413 74 165ft 0kts
13-Jun-18 02:59 61.189895 -149.999413 74 165ft 0kts
13-Jun-18 03:00 61.189895 -149.999413 74 165ft 0kts
13-Jun-18 03:01 61.189895 -149.999413 74 165ft 0kts
13-Jun-18 03:02 61.189895 -149.999413 74 165ft 0kts
13-Jun-18 03:03 61.189895 -149.999413 74 165ft 0kts
13-Jun-18 03:04 61.189895 -149.999413 74 165ft 0kts
13-Jun-18 03:05 61.189895 -149.999413 74 165ft 0kts
13-Jun-18 03:06 61.189895 -149.999413 74 165ft 0kts
13-Jun-18 03:07 61.189895 -149.999413 74 165ft 0kts
13-Jun-18 03:08 61.189895 -149.999413 74 165ft 0kts
13-Jun-18 03:09 61.189895 -149.999413 74 165ft 0kts
13-Jun-18 03:10 61.189895 -149.999413 74 165ft 0kts
13-Jun-18 03:11 61.189895 -149.999413 74 165ft 0kts
13-Jun-18 03:12 61.189895 -149.999413 74 165ft 0kts
13-Jun-18 03:13 61.189895 -149.999413 74 165ft 0kts
13-Jun-18 03:14 61.189895 -149.999413 74 165ft 0kts
13-Jun-18 03:15 61.189895 -149.999413 74 165ft 0kts
13-Jun-18 03:16 61.189895 -149.999413 74 165ft 0kts
13-Jun-18 03:17 61.189602 -150.000236 27 165ft 2kts
13-Jun-18 03:18 61.189416 -150.000445 29 165ft 0kts
13-Jun-18 03:19 61.189417 -150.000445 29 165ft 0kts
13-Jun-18 03:20 61.189697 -150.000435 337 165ft 5kts
13-Jun-18 03:21 61.191552 -150.002895 270 165ft 15kts
13-Jun-18 03:22 61.194506 -150.008038 344 165ft 25kts
13-Jun-18 03:23 61.197767 -150.009892 344 165ft 16kts
13-Jun-18 03:24 61.198862 -150.014051 186 165ft 3kts
13-Jun-18 03:25 61.194579 -150.011584 165 165ft 89kts
13-Jun-18 03:26 61.148980 -149.984634 156 2135ft 206kts
13-Jun-18 03:27 61.101800 -149.912339 140 4715ft 215kts
13-Jun-18 03:28 61.053958 -149.829837 140 6797ft 234kts
13-Jun-18 03:29 61.004752 -149.737689 120 8242ft 251kts
13-Jun-18 03:30 60.995533 -149.581315 87 8967ft 306kts
13-Jun-18 03:31 60.999092 -149.396871 85 10454ft 348kts
13-Jun-18 03:32 60.987908 -149.177532 99 11378ft 416kts
13-Jun-18 03:33 60.964474 -148.936716 98 13757ft 437kts
13-Jun-18 03:34 60.940604 -148.685982 97 16119ft 456kts
13-Jun-18 03:35 60.917613 -148.425374 96 18322ft 472kts
13-Jun-18 03:36 60.892469 -148.156683 96 20384ft 486kts
13-Jun-18 03:37 60.865637 -147.880079 96 22357ft 498kts
13-Jun-18 03:38 60.837625 -147.598248 96 24022ft 511kts
13-Jun-18 03:39 60.808282 -147.309646 97 25575ft 519kts
13-Jun-18 03:40 60.778440 -147.022778 97 27483ft 514kts
13-Jun-18 03:41 60.748188 -146.738224 98 29069ft 511kts
13-Jun-18 03:42 60.718237 -146.454152 99 30421ft 510kts
13-Jun-18 03:43 60.686262 -146.171955 100 30980ft 511kts
13-Jun-18 03:44 60.659405 -145.888076 94 30966ft 510kts
13-Jun-18 03:45 60.643904 -145.600607 94 30956ft 509kts
13-Jun-18 03:46 60.626794 -145.314991 95 30952ft 508kts
13-Jun-18 03:47 60.611653 -145.029352 95 30954ft 508kts
13-Jun-18 03:48 60.594553 -144.743394 96 30958ft 508kts
13-Jun-18 03:49 60.576608 -144.458650 97 30957ft 509kts
13-Jun-18 03:50 60.557981 -144.173696 97 30955ft 509kts
13-Jun-18 03:51 60.538675 -143.887809 98 30957ft 510kts
13-Jun-18 03:52 60.518823 -143.603492 99 30957ft 509kts
13-Jun-18 03:53 60.498327 -143.318911 99 30954ft 508kts
13-Jun-18 03:54 60.477351 -143.036284 100 30952ft 507kts
13-Jun-18 03:55 60.455802 -142.754207 100 30950ft 507kts
13-Jun-18 03:56 60.433574 -142.471690 101 30947ft 507kts
13-Jun-18 03:57 60.410832 -142.190467 101 30942ft 507kts
13-Jun-18 03:58 60.387479 -141.909408 102 30937ft 507kts
13-Jun-18 03:59 60.363471 -141.627955 102 30927ft 506kts
13-Jun-18 04:00 60.338998 -141.348443 103 30925ft 506kts
13-Jun-18 04:01 60.313965 -141.069689 103 30922ft 505kts
13-Jun-18 04:02 60.288317 -140.790959 104 30919ft 504kts
13-Jun-18 04:03 60.262223 -140.514107 104 30917ft 503kts
13-Jun-18 04:04 60.235581 -140.237907 104 30914ft 503kts
13-Jun-18 04:05 60.208305 -139.961550 105 30913ft 502kts
13-Jun-18 04:06 60.180552 -139.686573 105 30911ft 502kts
13-Jun-18 04:07 60.153001 -139.411829 105 30905ft 502kts
13-Jun-18 04:08 60.123515 -139.137896 106 30904ft 501kts
13-Jun-18 04:09 60.093848 -138.865419 106 30896ft 501kts
13-Jun-18 04:10 60.063240 -138.593794 106 30893ft 500kts
13-Jun-18 04:11 60.031911 -138.322065 106 30890ft 500kts
13-Jun-18 04:12 60.002403 -138.050350 106 30883ft 500kts
13-Jun-18 04:13 59.971006 -137.779178 106 30877ft 500kts
13-Jun-18 04:14 59.939013 -137.509745 106 30873ft 499kts
13-Jun-18 04:15 59.906543 -137.241527 106 30867ft 498kts
13-Jun-18 04:16 59.873500 -136.973618 106 30863ft 496kts
13-Jun-18 04:17 59.840111 -136.707776 107 30859ft 495kts
13-Jun-18 04:18 59.806279 -136.443152 107 30856ft 494kts
13-Jun-18 04:19 59.772585 -136.177717 107 30854ft 494kts
13-Jun-18 04:20 59.737153 -135.914543 107 30852ft 494kts
13-Jun-18 04:21 59.702121 -135.651596 107 30851ft 494kts
13-Jun-18 04:22 59.666116 -135.388738 107 30849ft 493kts
13-Jun-18 04:23 59.629528 -135.127679 108 30849ft 493kts
13-Jun-18 04:24 59.591532 -134.868157 108 30849ft 492kts
13-Jun-18 04:25 59.552835 -134.608588 108 30849ft 492kts
13-Jun-18 04:26 59.515384 -134.349458 108 30850ft 492kts
13-Jun-18 04:27 59.476804 -134.091348 108 30851ft 492kts
13-Jun-18 04:28 59.437300 -133.833094 108 30853ft 492kts
13-Jun-18 04:29 59.397599 -133.576122 108 30854ft 493kts
13-Jun-18 04:30 59.357353 -133.318586 109 30855ft 493kts
13-Jun-18 04:31 59.315927 -133.062871 109 30855ft 493kts
13-Jun-18 04:32 59.274116 -132.807527 109 30855ft 493kts
13-Jun-18 04:33 59.231320 -132.551964 110 30838ft 494kts
13-Jun-18 04:34 59.188653 -132.297399 108 30833ft 494kts
13-Jun-18 04:35 59.146727 -132.042606 110 30828ft 494kts
13-Jun-18 04:36 59.103162 -131.787862 109 30822ft 495kts
13-Jun-18 04:37 59.059098 -131.534316 110 30818ft 495kts
13-Jun-18 04:38 59.014527 -131.281412 110 30812ft 496kts
13-Jun-18 04:39 58.969257 -131.028017 110 30808ft 496kts
13-Jun-18 04:40 58.923616 -130.775933 110 30805ft 497kts
13-Jun-18 04:41 58.877949 -130.524003 110 30802ft 497kts
13-Jun-18 04:42 58.831021 -130.271959 111 30801ft 497kts
13-Jun-18 04:43 58.783439 -130.021619 111 30800ft 498kts
13-Jun-18 04:44 58.743391 -129.813747 111 30799ft 497kts
13-Jun-18 04:45 58.694470 -129.564669 111 30799ft 496kts
13-Jun-18 04:46 58.637966 -129.275549 110 30799ft 496kts
13-Jun-18 04:47 58.589795 -129.028142 111 30799ft 495kts
13-Jun-18 04:48 58.540306 -128.781124 111 30796ft 496kts
13-Jun-18 04:49 58.490370 -128.535416 111 30794ft 497kts
13-Jun-18 04:50 58.439765 -128.289504 111 30793ft 499kts
13-Jun-18 04:51 58.388321 -128.042550 111 30787ft 501kts
13-Jun-18 04:52 58.336471 -127.796635 111 30789ft 501kts
13-Jun-18 04:53 58.292934 -127.592397 112 30791ft 500kts
13-Jun-18 04:54 58.240255 -127.347947 112 30793ft 498kts
13-Jun-18 04:55 58.187476 -127.105891 112 30787ft 496kts
13-Jun-18 04:56 58.134230 -126.864511 112 30787ft 495kts
13-Jun-18 04:57 58.080704 -126.624627 112 30788ft 496kts
13-Jun-18 04:58 58.026660 -126.385153 112 31386ft 496kts
13-Jun-18 04:59 57.972365 -126.147267 112 32799ft 487kts
13-Jun-18 05:00 57.918748 -125.914904 112 33875ft 481kts
13-Jun-18 05:01 57.865104 -125.684925 113 34504ft 482kts
13-Jun-18 05:02 57.811187 -125.453122 112 34795ft 484kts
13-Jun-18 05:03 57.755944 -125.222765 113 34795ft 486kts
13-Jun-18 05:04 57.700107 -124.992366 113 34796ft 487kts
13-Jun-18 05:05 57.643367 -124.761799 113 34797ft 487kts
13-Jun-18 05:06 57.586217 -124.532990 113 34796ft 487kts
13-Jun-18 05:07 57.529714 -124.304056 113 34797ft 487kts
13-Jun-18 05:08 57.472915 -124.075179 113 34797ft 486kts
13-Jun-18 05:09 57.415274 -123.847790 113 34798ft 489kts
13-Jun-18 05:10 57.356857 -123.620011 114 34797ft 491kts
13-Jun-18 05:11 57.297568 -123.391231 114 34797ft 493kts
13-Jun-18 05:12 57.237761 -123.162800 114 34796ft 495kts
13-Jun-18 05:13 57.177067 -122.933330 114 34774ft 497kts
13-Jun-18 05:14 57.115933 -122.704525 114 34775ft 501kts
13-Jun-18 05:15 57.054021 -122.475139 115 34773ft 501kts
13-Jun-18 05:16 56.991430 -122.245565 115 34769ft 502kts
13-Jun-18 05:17 56.928549 -122.017225 115 34766ft 503kts
13-Jun-18 05:18 56.864990 -121.788712 116 34763ft 506kts
13-Jun-18 05:19 56.800648 -121.559672 116 34757ft 506kts
13-Jun-18 05:20 56.736041 -121.331955 116 34754ft 507kts
13-Jun-18 05:21 56.670860 -121.104449 116 34753ft 508kts
13-Jun-18 05:22 56.605004 -120.876822 117 34751ft 508kts
13-Jun-18 05:23 56.539358 -120.649579 117 34748ft 510kts
13-Jun-18 05:24 56.472221 -120.423677 117 34748ft 510kts
13-Jun-18 05:25 56.404444 -120.197251 118 34746ft 511kts
13-Jun-18 05:26 56.336068 -119.972569 118 34733ft 512kts
13-Jun-18 05:27 56.267040 -119.748459 118 34732ft 512kts
13-Jun-18 05:28 56.199033 -119.522630 118 34737ft 513kts
13-Jun-18 05:29 56.130077 -119.298923 118 34734ft 513kts
13-Jun-18 05:30 56.060338 -119.075690 118 34734ft 515kts
13-Jun-18 05:31 55.989769 -118.852033 119 34733ft 516kts
13-Jun-18 05:32 55.918808 -118.629251 119 34734ft 517kts
13-Jun-18 05:33 55.847430 -118.407242 120 34733ft 517kts
13-Jun-18 05:34 55.775255 -118.184824 120 34732ft 519kts
13-Jun-18 05:35 55.702853 -117.963754 120 34730ft 519kts
13-Jun-18 05:36 55.629814 -117.742774 120 34730ft 518kts
13-Jun-18 05:37 55.556586 -117.523238 121 34731ft 519kts
13-Jun-18 05:38 55.482989 -117.304585 121 34732ft 519kts
13-Jun-18 05:39 55.408670 -117.085764 121 34735ft 519kts
13-Jun-18 05:40 55.334124 -116.868250 122 34738ft 520kts
13-Jun-18 05:41 55.259191 -116.651544 122 34737ft 520kts
13-Jun-18 05:42 55.183570 -116.434781 122 34741ft 521kts
13-Jun-18 05:43 55.107788 -116.219473 123 34746ft 520kts
13-Jun-18 05:44 55.031648 -116.005034 123 34747ft 521kts
13-Jun-18 05:45 54.954672 -115.790132 123 34747ft 522kts
13-Jun-18 05:46 54.877590 -115.576782 123 34746ft 522kts
13-Jun-18 05:47 54.800056 -115.364070 124 34747ft 522kts
13-Jun-18 05:48 54.721928 -115.151536 124 34749ft 522kts
13-Jun-18 05:49 54.643618 -114.940348 124 34752ft 522kts
13-Jun-18 05:50 54.564863 -114.729763 124 34755ft 523kts
13-Jun-18 05:51 54.485419 -114.519128 125 34759ft 523kts
13-Jun-18 05:52 54.405861 -114.309968 125 34763ft 524kts
13-Jun-18 05:53 54.325919 -114.101556 125 34768ft 524kts
13-Jun-18 05:54 54.245358 -113.893267 126 34774ft 524kts
13-Jun-18 05:55 54.164599 -113.686226 126 34789ft 524kts
13-Jun-18 05:56 54.083215 -113.479298 126 34792ft 524kts
13-Jun-18 05:57 54.001688 -113.273707 126 34796ft 525kts
13-Jun-18 05:58 53.919650 -113.068471 127 34800ft 526kts
13-Jun-18 05:59 53.836787 -112.862949 127 34797ft 527kts
13-Jun-18 06:00 53.753751 -112.658640 127 34797ft 528kts
13-Jun-18 06:01 53.670310 -112.454988 127 34797ft 528kts
13-Jun-18 06:02 53.586211 -112.251384 127 34805ft 528kts
13-Jun-18 06:03 53.502068 -112.049305 127 34806ft 528kts
13-Jun-18 06:04 53.417503 -111.847828 128 34807ft 529kts
13-Jun-18 06:05 53.332120 -111.646018 128 34808ft 530kts
13-Jun-18 06:06 53.246636 -111.445565 129 34812ft 531kts
13-Jun-18 06:07 53.160770 -111.245365 128 34813ft 532kts
13-Jun-18 06:08 53.074211 -111.045023 129 34815ft 532kts
13-Jun-18 06:09 52.987238 -110.846439 128 34814ft 533kts
13-Jun-18 06:10 52.911424 -110.634881 123 34817ft 535kts
13-Jun-18 06:11 52.836347 -110.420983 123 34816ft 536kts
13-Jun-18 06:12 52.761762 -110.207531 123 34816ft 537kts
13-Jun-18 06:13 52.686479 -109.994693 124 34822ft 538kts
13-Jun-18 06:14 52.610211 -109.782005 124 34823ft 538kts
13-Jun-18 06:15 52.533733 -109.570649 124 34824ft 538kts
13-Jun-18 06:16 52.456902 -109.360105 124 34825ft 539kts
13-Jun-18 06:17 52.379612 -109.150064 125 34826ft 539kts
13-Jun-18 06:18 52.301724 -108.940149 125 34829ft 539kts
13-Jun-18 06:19 52.223422 -108.730861 125 34828ft 539kts
13-Jun-18 06:20 52.144823 -108.522490 125 34825ft 541kts
13-Jun-18 06:21 52.065771 -108.314641 126 34823ft 540kts
13-Jun-18 06:22 51.986157 -108.107010 126 34831ft 541kts
13-Jun-18 06:23 51.906382 -107.900639 126 34834ft 541kts
13-Jun-18 06:24 51.826270 -107.695050 126 34838ft 540kts
13-Jun-18 06:25 51.745524 -107.489506 126 34856ft 541kts
13-Jun-18 06:26 51.664538 -107.284984 126 34856ft 542kts
13-Jun-18 06:27 51.583095 -107.080937 126 34856ft 543kts
13-Jun-18 06:28 51.500910 -106.876638 127 34857ft 544kts
13-Jun-18 06:29 51.418485 -106.673385 127 34856ft 544kts
13-Jun-18 06:30 51.335722 -106.470879 127 34857ft 544kts
13-Jun-18 06:31 51.252344 -106.268460 127 34857ft 544kts
13-Jun-18 06:32 51.168850 -106.067323 127 34859ft 544kts
13-Jun-18 06:33 51.085060 -105.867029 127 34861ft 545kts
13-Jun-18 06:34 51.000496 -105.666433 127 34862ft 545kts
13-Jun-18 06:35 50.916017 -105.467559 128 34866ft 544kts
13-Jun-18 06:36 50.831518 -105.269288 127 34868ft 544kts
13-Jun-18 06:37 50.746104 -105.071312 128 34870ft 544kts
13-Jun-18 06:38 50.658622 -104.877034 135 34872ft 542kts
13-Jun-18 06:39 50.553812 -104.707820 140 34869ft 536kts
13-Jun-18 06:40 50.448485 -104.542261 140 34870ft 536kts
13-Jun-18 06:41 50.343970 -104.375589 139 34871ft 537kts
13-Jun-18 06:42 50.238449 -104.209232 139 34875ft 537kts
13-Jun-18 06:43 50.133030 -104.044498 140 34882ft 537kts
13-Jun-18 06:44 50.027370 -103.880525 140 34890ft 537kts
13-Jun-18 06:45 49.921146 -103.716752 140 34900ft 537kts
13-Jun-18 06:46 49.815052 -103.554217 140 34916ft 538kts
13-Jun-18 06:47 49.708433 -103.392025 140 34919ft 538kts
13-Jun-18 06:48 49.601100 -103.229766 140 34925ft 539kts
13-Jun-18 06:49 49.493723 -103.068489 140 34928ft 540kts
13-Jun-18 06:50 49.385894 -102.907578 140 34931ft 541kts
13-Jun-18 06:51 49.277402 -102.746720 140 34930ft 541kts
13-Jun-18 06:52 49.168955 -102.586961 141 34935ft 543kts
13-Jun-18 06:53 49.060120 -102.427658 141 34951ft 542kts
13-Jun-18 06:54 48.950610 -102.268385 141 34960ft 543kts
13-Jun-18 06:55 48.841121 -102.110150 141 34972ft 544kts
13-Jun-18 06:56 48.731386 -101.952564 141 34979ft 545kts
13-Jun-18 06:57 48.620712 -101.794626 141 34980ft 546kts
13-Jun-18 06:58 48.510155 -101.637864 141 34977ft 546kts
13-Jun-18 06:59 48.399547 -101.481337 142 34972ft 546kts
13-Jun-18 07:00 48.287859 -101.325447 142 34983ft 547kts
13-Jun-18 07:01 48.168960 -101.185733 150 34991ft 542kts
13-Jun-18 07:02 48.046648 -101.054754 149 35002ft 541kts
13-Jun-18 07:03 47.924364 -100.922189 149 35017ft 542kts
13-Jun-18 07:04 47.802312 -100.790363 149 35029ft 543kts
13-Jun-18 07:05 47.679448 -100.658871 149 35039ft 543kts
13-Jun-18 07:06 47.556776 -100.528409 149 35061ft 544kts
13-Jun-18 07:07 47.433881 -100.398475 149 35066ft 543kts
13-Jun-18 07:08 47.310523 -100.268819 149 35070ft 543kts
13-Jun-18 07:09 47.187383 -100.140146 149 35069ft 543kts
13-Jun-18 07:10 47.064198 -100.012172 149 35071ft 542kts
13-Jun-18 07:11 46.940274 -99.884173 149 35082ft 545kts
13-Jun-18 07:12 46.816337 -99.756898 150 35096ft 544kts
13-Jun-18 07:13 46.713117 -99.651452 150 35097ft 544kts
13-Jun-18 07:14 46.588937 -99.525260 150 35099ft 543kts
13-Jun-18 07:15 46.465034 -99.400059 150 35099ft 544kts
13-Jun-18 07:16 46.340788 -99.275220 150 35100ft 544kts
13-Jun-18 07:17 46.216049 -99.150590 150 35103ft 544kts
13-Jun-18 07:18 46.070478 -99.006032 150 35106ft 545kts
13-Jun-18 07:19 45.945546 -98.882711 150 35115ft 543kts
13-Jun-18 07:20 45.841444 -98.780474 150 35118ft 543kts
13-Jun-18 07:21 45.716526 -98.658422 150 35122ft 544kts
13-Jun-18 07:22 45.591611 -98.536580 150 35126ft 545kts
13-Jun-18 07:23 45.465759 -98.415283 150 35129ft 545kts
13-Jun-18 07:24 45.339623 -98.296518 152 35129ft 543kts
13-Jun-18 07:25 45.213192 -98.180080 152 35130ft 542kts
13-Jun-18 07:26 45.086742 -98.063531 151 35131ft 540kts
13-Jun-18 07:27 44.961069 -97.947912 152 35133ft 541kts
13-Jun-18 07:28 44.834772 -97.832759 152 35140ft 540kts
13-Jun-18 07:29 44.708434 -97.718222 152 35140ft 538kts
13-Jun-18 07:30 44.582815 -97.604928 152 35142ft 536kts
13-Jun-18 07:31 44.456936 -97.491992 152 35144ft 537kts
13-Jun-18 07:32 44.331173 -97.379746 152 35150ft 537kts
13-Jun-18 07:33 44.205382 -97.268049 152 35160ft 536kts
13-Jun-18 07:34 44.079027 -97.156424 152 35160ft 537kts
13-Jun-18 07:35 43.952844 -97.045509 153 35160ft 536kts
13-Jun-18 07:36 43.827167 -96.935241 153 35161ft 535kts
13-Jun-18 07:37 43.700607 -96.825407 153 35160ft 536kts
13-Jun-18 07:38 43.586744 -96.690895 137 35162ft 548kts
13-Jun-18 07:39 43.483465 -96.535103 137 35165ft 552kts
13-Jun-18 07:40 43.378964 -96.379948 136 35172ft 551kts
13-Jun-18 07:41 43.274625 -96.225636 137 35175ft 552kts
13-Jun-18 07:42 43.169918 -96.072263 137 35176ft 552kts
13-Jun-18 07:43 43.064354 -95.918518 138 35176ft 555kts
13-Jun-18 07:44 42.958467 -95.765130 138 35179ft 555kts
13-Jun-18 07:45 42.852349 -95.612231 138 35177ft 556kts
13-Jun-18 07:46 42.745519 -95.459122 138 35180ft 557kts
13-Jun-18 07:47 42.638918 -95.306766 138 35187ft 557kts
13-Jun-18 07:48 42.531540 -95.154530 139 35190ft 557kts
13-Jun-18 07:49 42.424066 -95.003263 139 35184ft 558kts
13-Jun-18 07:50 42.316200 -94.852608 139 35173ft 559kts
13-Jun-18 07:51 42.207457 -94.701545 139 35195ft 559kts
13-Jun-18 07:52 42.099644 -94.550922 140 35195ft 560kts
13-Jun-18 07:53 41.991179 -94.401085 140 35191ft 558kts
13-Jun-18 07:54 41.882427 -94.251688 140 35180ft 560kts
13-Jun-18 07:55 41.773622 -94.102939 140 35191ft 559kts
13-Jun-18 07:56 41.664712 -93.954882 140 35173ft 560kts
13-Jun-18 07:57 41.555350 -93.806694 140 35169ft 557kts
13-Jun-18 07:58 41.446632 -93.660660 140 35166ft 553kts
13-Jun-18 07:59 41.336916 -93.518469 142 35169ft 550kts
13-Jun-18 08:00 41.226982 -93.377233 142 35165ft 546kts
13-Jun-18 08:01 41.118003 -93.236716 142 35167ft 547kts
13-Jun-18 08:02 41.008876 -93.097192 142 35169ft 544kts
13-Jun-18 08:03 40.899730 -92.958025 142 35174ft 543kts
13-Jun-18 08:04 40.790773 -92.820548 142 35175ft 542kts
13-Jun-18 08:05 40.681921 -92.683915 142 35174ft 540kts
13-Jun-18 08:06 40.572927 -92.547991 142 35168ft 537kts
13-Jun-18 08:07 40.464916 -92.412980 142 35156ft 535kts
13-Jun-18 08:08 40.356806 -92.278384 142 35152ft 534kts
13-Jun-18 08:09 40.249213 -92.145420 142 35144ft 531kts
13-Jun-18 08:10 40.141749 -92.013262 142 35138ft 530kts
13-Jun-18 08:11 40.033800 -91.881117 142 35127ft 531kts
13-Jun-18 08:12 39.926103 -91.749881 142 35118ft 530kts
13-Jun-18 08:13 39.818321 -91.619130 142 35120ft 530kts
13-Jun-18 08:14 39.710157 -91.488505 142 35120ft 529kts
13-Jun-18 08:15 39.602320 -91.358855 142 35118ft 529kts
13-Jun-18 08:16 39.494471 -91.229765 142 35113ft 528kts
13-Jun-18 08:17 39.386274 -91.100828 142 35102ft 527kts
13-Jun-18 08:18 39.278382 -90.972817 142 35094ft 527kts
13-Jun-18 08:19 39.170402 -90.845259 142 35083ft 527kts
13-Jun-18 08:20 39.062181 -90.717559 142 35064ft 526kts
13-Jun-18 08:21 38.954007 -90.591051 142 35054ft 526kts
13-Jun-18 08:22 38.837472 -90.483813 165 35054ft 512kts
13-Jun-18 08:23 38.700313 -90.447236 176 35067ft 498kts
13-Jun-18 08:24 38.563523 -90.419509 175 35062ft 498kts
13-Jun-18 08:25 38.426365 -90.390614 175 35059ft 498kts
13-Jun-18 08:26 38.289597 -90.361862 175 35067ft 499kts
13-Jun-18 08:27 38.152774 -90.333291 175 35076ft 498kts
13-Jun-18 08:28 38.015692 -90.304810 175 35091ft 498kts
13-Jun-18 08:29 37.878979 -90.276410 175 35103ft 498kts
13-Jun-18 08:30 37.742206 -90.248210 175 35107ft 498kts
13-Jun-18 08:31 37.613450 -90.182401 150 35105ft 512kts
13-Jun-18 08:32 37.496616 -90.078485 148 35095ft 515kts
13-Jun-18 08:33 37.379507 -89.975291 148 35088ft 514kts
13-Jun-18 08:34 37.262198 -89.872005 148 35082ft 513kts
13-Jun-18 08:35 37.145277 -89.769878 148 35084ft 512kts
13-Jun-18 08:36 37.028732 -89.668284 148 35087ft 510kts
13-Jun-18 08:37 36.911906 -89.567261 148 35090ft 509kts
13-Jun-18 08:38 36.795661 -89.467095 148 35090ft 508kts
13-Jun-18 08:39 36.679558 -89.367478 148 35091ft 507kts
13-Jun-18 08:40 36.563217 -89.267645 147 35091ft 506kts
13-Jun-18 08:41 36.447424 -89.168350 148 35090ft 506kts
13-Jun-18 08:42 36.330909 -89.069432 148 35091ft 506kts
13-Jun-18 08:43 36.214600 -88.970996 148 35095ft 507kts
13-Jun-18 08:44 36.098285 -88.872958 148 35108ft 506kts
13-Jun-18 08:45 35.981623 -88.774725 147 35112ft 506kts
13-Jun-18 08:46 35.866014 -88.677438 146 35113ft 503kts
13-Jun-18 08:47 35.750446 -88.580527 147 35113ft 503kts
13-Jun-18 08:48 35.634130 -88.483823 147 35114ft 503kts
13-Jun-18 08:49 35.518120 -88.387724 147 35120ft 503kts
13-Jun-18 08:50 35.402013 -88.292049 147 35124ft 503kts
13-Jun-18 08:51 35.285439 -88.196257 146 35129ft 503kts
13-Jun-18 08:52 35.169502 -88.100586 146 35130ft 503kts
13-Jun-18 08:53 35.052785 -88.005359 146 35134ft 503kts
13-Jun-18 08:54 34.936826 -87.911041 146 35144ft 503kts
13-Jun-18 08:55 34.820191 -87.816062 146 35154ft 503kts
13-Jun-18 08:56 34.703160 -87.721547 145 35160ft 504kts
13-Jun-18 08:57 34.586421 -87.627587 145 35163ft 503kts
13-Jun-18 08:58 34.469788 -87.534087 145 35176ft 503kts
13-Jun-18 08:59 34.352676 -87.440312 145 35183ft 504kts
13-Jun-18 09:00 34.236031 -87.346731 145 35185ft 503kts
13-Jun-18 09:01 34.119192 -87.253930 145 35184ft 503kts
13-Jun-18 09:02 34.001784 -87.160996 145 35182ft 503kts
13-Jun-18 09:03 33.884854 -87.068438 145 35184ft 504kts
13-Jun-18 09:04 33.767279 -86.976003 145 35192ft 504kts
13-Jun-18 09:05 33.647021 -86.890392 156 35204ft 505kts
13-Jun-18 09:06 33.513831 -86.835770 160 35205ft 507kts
13-Jun-18 09:07 33.379619 -86.782036 159 35194ft 507kts
13-Jun-18 09:08 33.246074 -86.727942 159 35183ft 507kts
13-Jun-18 09:09 33.112458 -86.674070 159 35181ft 508kts
13-Jun-18 09:10 32.978315 -86.620192 159 35185ft 507kts
13-Jun-18 09:11 32.844655 -86.566690 159 35185ft 507kts
13-Jun-18 09:12 32.710909 -86.513319 160 35187ft 508kts
13-Jun-18 09:13 32.576613 -86.459896 160 35186ft 508kts
13-Jun-18 09:14 32.442823 -86.406723 160 35181ft 508kts
13-Jun-18 09:15 32.308865 -86.353846 160 35184ft 508kts
13-Jun-18 09:16 32.186071 -86.275554 137 35192ft 506kts
13-Jun-18 09:17 32.086806 -86.158791 132 35194ft 504kts
13-Jun-18 09:18 31.988104 -86.040876 133 35198ft 504kts
13-Jun-18 09:19 31.889804 -85.923346 133 35199ft 504kts
13-Jun-18 09:20 31.791161 -85.806362 133 35196ft 504kts
13-Jun-18 09:21 31.692072 -85.689337 133 35192ft 504kts
13-Jun-18 09:22 31.593294 -85.573063 133 35202ft 503kts
13-Jun-18 09:23 31.494565 -85.457219 133 35209ft 502kts
13-Jun-18 09:24 31.395518 -85.341365 134 35224ft 502kts
13-Jun-18 09:25 31.296776 -85.226237 134 35215ft 501kts
13-Jun-18 09:26 31.197749 -85.111135 134 35206ft 501kts
13-Jun-18 09:27 31.098997 -84.996707 134 35199ft 500kts
13-Jun-18 09:28 31.000265 -84.882658 134 35195ft 500kts
13-Jun-18 09:29 30.901171 -84.768540 134 35198ft 499kts
13-Jun-18 09:30 30.802392 -84.655129 134 35200ft 499kts
13-Jun-18 09:31 30.703769 -84.541936 134 35208ft 498kts
13-Jun-18 09:32 30.604569 -84.428954 134 35208ft 498kts
13-Jun-18 09:33 30.489482 -84.342160 155 35203ft 500kts
13-Jun-18 09:34 30.381647 -84.292707 157 35200ft 501kts
13-Jun-18 09:35 30.251792 -84.233300 157 35201ft 500kts
13-Jun-18 09:36 30.101098 -84.163720 156 35203ft 500kts
13-Jun-18 09:37 29.971925 -84.104376 157 35205ft 500kts
13-Jun-18 09:38 29.842265 -84.045000 157 35207ft 500kts
13-Jun-18 09:39 29.713039 -83.985979 157 35208ft 500kts
13-Jun-18 09:40 29.605355 -83.936944 157 35206ft 500kts
13-Jun-18 09:41 29.475766 -83.878071 157 35206ft 499kts
13-Jun-18 09:42 29.346755 -83.819616 157 35205ft 499kts
13-Jun-18 09:43 29.217748 -83.761321 157 35199ft 498kts
13-Jun-18 09:44 29.088432 -83.703057 157 35198ft 498kts
13-Jun-18 09:45 28.959559 -83.645147 157 35202ft 498kts
13-Jun-18 09:46 28.830239 -83.587189 157 35206ft 498kts
13-Jun-18 09:47 28.701358 -83.529581 158 35202ft 498kts
13-Jun-18 09:48 28.572441 -83.472097 158 35201ft 498kts
13-Jun-18 09:49 28.443055 -83.414579 158 35200ft 498kts
13-Jun-18 09:50 28.314101 -83.357394 158 35207ft 498kts
13-Jun-18 09:51 28.184737 -83.300175 158 35206ft 498kts
13-Jun-18 09:52 28.055979 -83.243372 158 35204ft 497kts
13-Jun-18 09:53 27.927492 -83.186818 158 35205ft 494kts
13-Jun-18 09:54 27.799024 -83.130445 159 35196ft 494kts
13-Jun-18 09:55 27.671107 -83.074444 159 35193ft 493kts
13-Jun-18 09:56 27.543422 -83.018679 159 35185ft 492kts
13-Jun-18 09:57 27.415574 -82.962922 159 35184ft 491kts
13-Jun-18 09:58 27.288296 -82.907598 159 35186ft 491kts
13-Jun-18 09:59 27.161229 -82.852189 155 35180ft 490kts
13-Jun-18 10:00 27.055324 -82.755229 136 35193ft 494kts
13-Jun-18 10:01 26.958211 -82.646318 137 35201ft 494kts
13-Jun-18 10:02 26.860569 -82.538259 137 35196ft 493kts
13-Jun-18 10:03 26.762721 -82.430015 137 35195ft 493kts
13-Jun-18 10:04 26.664829 -82.322596 137 35200ft 493kts
13-Jun-18 10:05 26.586927 -82.237294 137 35199ft 493kts
13-Jun-18 10:06 26.487654 -82.131759 138 35180ft 493kts
13-Jun-18 10:07 26.389588 -82.027902 138 32886ft 483kts
13-Jun-18 10:08 26.292240 -81.924424 138 29580ft 482kts
13-Jun-18 10:09 26.192171 -81.818933 137 26516ft 494kts
13-Jun-18 10:10 26.124325 -81.690990 111 23757ft 477kts
13-Jun-18 10:11 26.081337 -81.553940 109 21106ft 459kts
13-Jun-18 10:12 26.039461 -81.423052 110 18522ft 441kts
13-Jun-18 10:13 25.998475 -81.296723 110 15954ft 426kts
13-Jun-18 10:14 25.958979 -81.174849 110 13456ft 413kts
13-Jun-18 10:15 25.920491 -81.057280 110 11310ft 393kts
13-Jun-18 10:16 25.885565 -80.951162 110 10730ft 341kts
13-Jun-18 10:17 25.854688 -80.859155 105 10203ft 293kts
13-Jun-18 10:18 25.853925 -80.771814 85 9365ft 275kts
13-Jun-18 10:19 25.859285 -80.689074 86 6999ft 256kts
13-Jun-18 10:20 25.860868 -80.611736 106 5796ft 236kts
13-Jun-18 10:21 25.828156 -80.551501 127 4231ft 224kts
13-Jun-18 10:22 25.793209 -80.498023 126 2909ft 184kts
13-Jun-18 10:23 25.779033 -80.452314 91 1997ft 155kts
13-Jun-18 10:24 25.782440 -80.404177 88 1171ft 157kts
13-Jun-18 10:25 25.784400 -80.355761 87 820ft 156kts
13-Jun-18 10:26 25.786411 -80.307547 86 29ft 150kts
13-Jun-18 10:27 25.788046 -80.287002 33 21ft 12kts
13-Jun-18 10:28 25.789187 -80.289696 255 21ft 18kts
13-Jun-18 10:29 25.788710 -80.298442 266 21ft 29kts
13-Jun-18 10:30 25.788603 -80.305635 328 21ft 15kts
13-Jun-18 10:31 25.791549 -80.306440 312 21ft 0kts
13-Jun-18 10:32 25.791549 -80.306440 312 21ft 0kts
13-Jun-18 10:33 25.791549 -80.306440 312 21ft 0kts
13-Jun-18 10:34 25.791549 -80.306440 312 21ft 0kts
13-Jun-18 10:35 25.791549 -80.306440 312 21ft 0kts

Navigation Log

Ident Type
Flight plan parsing failed, navigation log unavailable